sensor_id;sensor_type;location;lat;lon;timestamp;P1;durP1;ratioP1;P2;durP2;ratioP2
14377;SDS011;7272;53.668;9.578;2023-10-09T00:02:40;3.93;;;2.60;;
14377;SDS011;7272;53.668;9.578;2023-10-09T00:05:43;3.30;;;2.57;;
14377;SDS011;7272;53.668;9.578;2023-10-09T00:08:47;3.47;;;2.67;;
14377;SDS011;7272;53.668;9.578;2023-10-09T00:11:54;3.77;;;3.00;;
14377;SDS011;7272;53.668;9.578;2023-10-09T00:14:57;5.97;;;3.45;;
14377;SDS011;7272;53.668;9.578;2023-10-09T00:18:12;4.03;;;2.50;;
14377;SDS011;7272;53.668;9.578;2023-10-09T00:21:13;3.47;;;2.67;;
14377;SDS011;7272;53.668;9.578;2023-10-09T00:24:16;2.50;;;2.30;;
14377;SDS011;7272;53.668;9.578;2023-10-09T00:27:23;3.03;;;2.40;;
14377;SDS011;7272;53.668;9.578;2023-10-09T00:30:31;2.93;;;2.30;;
14377;SDS011;7272;53.668;9.578;2023-10-09T00:33:33;4.77;;;2.67;;
14377;SDS011;7272;53.668;9.578;2023-10-09T00:36:34;3.53;;;2.73;;
14377;SDS011;7272;53.668;9.578;2023-10-09T00:39:50;3.93;;;2.43;;
14377;SDS011;7272;53.668;9.578;2023-10-09T00:42:58;5.37;;;2.50;;
14377;SDS011;7272;53.668;9.578;2023-10-09T00:46:03;5.00;;;2.13;;
14377;SDS011;7272;53.668;9.578;2023-10-09T00:49:11;5.77;;;2.63;;
14377;SDS011;7272;53.668;9.578;2023-10-09T00:52:16;2.50;;;2.23;;
14377;SDS011;7272;53.668;9.578;2023-10-09T00:55:25;3.10;;;2.40;;
14377;SDS011;7272;53.668;9.578;2023-10-09T00:58:38;3.00;;;2.20;;
14377;SDS011;7272;53.668;9.578;2023-10-09T01:01:40;2.67;;;2.17;;
14377;SDS011;7272;53.668;9.578;2023-10-09T01:04:49;3.37;;;2.67;;
14377;SDS011;7272;53.668;9.578;2023-10-09T01:07:50;4.70;;;2.47;;
14377;SDS011;7272;53.668;9.578;2023-10-09T01:10:59;4.03;;;3.58;;
14377;SDS011;7272;53.668;9.578;2023-10-09T01:14:09;5.15;;;3.30;;
14377;SDS011;7272;53.668;9.578;2023-10-09T01:17:12;2.97;;;2.60;;
14377;SDS011;7272;53.668;9.578;2023-10-09T01:20:29;5.40;;;2.80;;
14377;SDS011;7272;53.668;9.578;2023-10-09T01:23:42;2.67;;;2.10;;
14377;SDS011;7272;53.668;9.578;2023-10-09T01:27:03;2.80;;;2.50;;
14377;SDS011;7272;53.668;9.578;2023-10-09T01:30:06;3.90;;;2.60;;
14377;SDS011;7272;53.668;9.578;2023-10-09T01:33:14;4.60;;;2.63;;
14377;SDS011;7272;53.668;9.578;2023-10-09T01:36:22;4.83;;;2.77;;
14377;SDS011;7272;53.668;9.578;2023-10-09T01:39:32;4.15;;;3.60;;
14377;SDS011;7272;53.668;9.578;2023-10-09T01:42:40;4.50;;;3.50;;
14377;SDS011;7272;53.668;9.578;2023-10-09T01:45:45;3.17;;;2.83;;
14377;SDS011;7272;53.668;9.578;2023-10-09T01:48:47;4.13;;;2.53;;
14377;SDS011;7272;53.668;9.578;2023-10-09T01:51:49;2.60;;;2.17;;
14377;SDS011;7272;53.668;9.578;2023-10-09T01:54:51;4.00;;;2.43;;
14377;SDS011;7272;53.668;9.578;2023-10-09T01:57:53;2.73;;;2.13;;
14377;SDS011;7272;53.668;9.578;2023-10-09T02:00:54;5.73;;;2.83;;
14377;SDS011;7272;53.668;9.578;2023-10-09T02:03:56;3.30;;;2.43;;
14377;SDS011;7272;53.668;9.578;2023-10-09T02:07:05;4.20;;;2.80;;
14377;SDS011;7272;53.668;9.578;2023-10-09T02:10:10;3.17;;;2.73;;
14377;SDS011;7272;53.668;9.578;2023-10-09T02:13:22;2.80;;;2.50;;
14377;SDS011;7272;53.668;9.578;2023-10-09T02:16:29;4.85;;;4.07;;
14377;SDS011;7272;53.668;9.578;2023-10-09T02:19:41;5.90;;;3.20;;
14377;SDS011;7272;53.668;9.578;2023-10-09T02:22:43;5.30;;;3.40;;
14377;SDS011;7272;53.668;9.578;2023-10-09T02:25:45;5.40;;;2.83;;
14377;SDS011;7272;53.668;9.578;2023-10-09T02:28:47;3.57;;;2.53;;
14377;SDS011;7272;53.668;9.578;2023-10-09T02:31:58;3.70;;;2.50;;
14377;SDS011;7272;53.668;9.578;2023-10-09T02:35:13;3.73;;;2.40;;
14377;SDS011;7272;53.668;9.578;2023-10-09T02:38:36;4.33;;;2.87;;
14377;SDS011;7272;53.668;9.578;2023-10-09T02:41:38;3.20;;;2.70;;
14377;SDS011;7272;53.668;9.578;2023-10-09T02:44:49;3.23;;;2.63;;
14377;SDS011;7272;53.668;9.578;2023-10-09T02:47:51;3.53;;;2.40;;
14377;SDS011;7272;53.668;9.578;2023-10-09T02:50:55;2.90;;;2.37;;
14377;SDS011;7272;53.668;9.578;2023-10-09T02:53:58;3.60;;;2.70;;
14377;SDS011;7272;53.668;9.578;2023-10-09T02:57:07;2.60;;;2.33;;
14377;SDS011;7272;53.668;9.578;2023-10-09T03:00:08;5.70;;;2.47;;
14377;SDS011;7272;53.668;9.578;2023-10-09T03:03:19;3.30;;;2.40;;
14377;SDS011;7272;53.668;9.578;2023-10-09T03:06:21;2.17;;;1.90;;
14377;SDS011;7272;53.668;9.578;2023-10-09T03:09:31;2.53;;;2.20;;
14377;SDS011;7272;53.668;9.578;2023-10-09T03:12:33;3.40;;;2.20;;
14377;SDS011;7272;53.668;9.578;2023-10-09T03:15:34;2.87;;;2.33;;
14377;SDS011;7272;53.668;9.578;2023-10-09T03:18:36;4.15;;;3.28;;
14377;SDS011;7272;53.668;9.578;2023-10-09T03:21:37;2.70;;;2.30;;
14377;SDS011;7272;53.668;9.578;2023-10-09T03:24:38;2.80;;;2.60;;
14377;SDS011;7272;53.668;9.578;2023-10-09T03:27:44;2.63;;;2.40;;
14377;SDS011;7272;53.668;9.578;2023-10-09T03:30:46;3.60;;;2.30;;
14377;SDS011;7272;53.668;9.578;2023-10-09T03:33:47;2.77;;;2.20;;
14377;SDS011;7272;53.668;9.578;2023-10-09T03:36:49;2.83;;;2.20;;
14377;SDS011;7272;53.668;9.578;2023-10-09T03:39:59;2.73;;;2.20;;
14377;SDS011;7272;53.668;9.578;2023-10-09T03:43:02;3.63;;;2.20;;
14377;SDS011;7272;53.668;9.578;2023-10-09T03:46:04;5.07;;;2.43;;
14377;SDS011;7272;53.668;9.578;2023-10-09T03:49:14;4.13;;;2.83;;
14377;SDS011;7272;53.668;9.578;2023-10-09T03:52:23;3.00;;;2.17;;
14377;SDS011;7272;53.668;9.578;2023-10-09T03:55:27;4.07;;;2.47;;
14377;SDS011;7272;53.668;9.578;2023-10-09T03:58:29;2.83;;;2.27;;
14377;SDS011;7272;53.668;9.578;2023-10-09T04:01:33;2.67;;;2.30;;
14377;SDS011;7272;53.668;9.578;2023-10-09T04:04:38;2.50;;;2.20;;
14377;SDS011;7272;53.668;9.578;2023-10-09T04:07:39;3.17;;;2.30;;
14377;SDS011;7272;53.668;9.578;2023-10-09T04:10:42;2.90;;;2.40;;
14377;SDS011;7272;53.668;9.578;2023-10-09T04:13:53;6.13;;;2.97;;
14377;SDS011;7272;53.668;9.578;2023-10-09T04:16:54;5.15;;;3.03;;
14377;SDS011;7272;53.668;9.578;2023-10-09T04:20:16;4.68;;;3.25;;
14377;SDS011;7272;53.668;9.578;2023-10-09T04:23:36;6.00;;;3.20;;
14377;SDS011;7272;53.668;9.578;2023-10-09T04:26:57;3.37;;;2.17;;
14377;SDS011;7272;53.668;9.578;2023-10-09T04:29:59;5.00;;;2.20;;
14377;SDS011;7272;53.668;9.578;2023-10-09T04:33:01;2.43;;;2.23;;
14377;SDS011;7272;53.668;9.578;2023-10-09T04:36:11;2.53;;;2.20;;
14377;SDS011;7272;53.668;9.578;2023-10-09T04:39:17;4.57;;;2.30;;
14377;SDS011;7272;53.668;9.578;2023-10-09T04:42:32;3.90;;;2.60;;
14377;SDS011;7272;53.668;9.578;2023-10-09T04:45:37;4.03;;;2.37;;
14377;SDS011;7272;53.668;9.578;2023-10-09T04:48:57;3.88;;;2.42;;
14377;SDS011;7272;53.668;9.578;2023-10-09T04:52:15;3.13;;;2.43;;
14377;SDS011;7272;53.668;9.578;2023-10-09T04:55:40;3.33;;;2.47;;
14377;SDS011;7272;53.668;9.578;2023-10-09T04:58:44;2.87;;;2.60;;
14377;SDS011;7272;53.668;9.578;2023-10-09T05:01:48;3.70;;;2.53;;
14377;SDS011;7272;53.668;9.578;2023-10-09T05:04:58;3.33;;;2.47;;
14377;SDS011;7272;53.668;9.578;2023-10-09T05:08:16;4.07;;;2.50;;
14377;SDS011;7272;53.668;9.578;2023-10-09T05:11:21;3.47;;;2.47;;
14377;SDS011;7272;53.668;9.578;2023-10-09T05:14:53;3.83;;;2.60;;
14377;SDS011;7272;53.668;9.578;2023-10-09T05:18:09;3.00;;;2.60;;
14377;SDS011;7272;53.668;9.578;2023-10-09T05:21:16;6.23;;;2.80;;
14377;SDS011;7272;53.668;9.578;2023-10-09T05:24:36;3.47;;;2.87;;
14377;SDS011;7272;53.668;9.578;2023-10-09T05:27:47;4.95;;;3.70;;
14377;SDS011;7272;53.668;9.578;2023-10-09T05:30:51;4.13;;;2.43;;
14377;SDS011;7272;53.668;9.578;2023-10-09T05:34:03;3.10;;;2.57;;
14377;SDS011;7272;53.668;9.578;2023-10-09T05:37:06;4.17;;;2.90;;
14377;SDS011;7272;53.668;9.578;2023-10-09T05:40:17;3.17;;;2.17;;
14377;SDS011;7272;53.668;9.578;2023-10-09T05:43:31;3.07;;;2.60;;
14377;SDS011;7272;53.668;9.578;2023-10-09T05:46:50;4.10;;;2.80;;
14377;SDS011;7272;53.668;9.578;2023-10-09T05:50:23;2.87;;;2.00;;
14377;SDS011;7272;53.668;9.578;2023-10-09T05:53:34;3.27;;;2.97;;
14377;SDS011;7272;53.668;9.578;2023-10-09T05:57:09;3.03;;;2.50;;
14377;SDS011;7272;53.668;9.578;2023-10-09T06:00:25;5.40;;;3.90;;
14377;SDS011;7272;53.668;9.578;2023-10-09T06:03:45;4.07;;;3.30;;
14377;SDS011;7272;53.668;9.578;2023-10-09T06:06:49;3.60;;;2.83;;
14377;SDS011;7272;53.668;9.578;2023-10-09T06:09:56;4.73;;;3.07;;
14377;SDS011;7272;53.668;9.578;2023-10-09T06:12:58;3.73;;;3.20;;
14377;SDS011;7272;53.668;9.578;2023-10-09T06:16:04;5.70;;;3.40;;
14377;SDS011;7272;53.668;9.578;2023-10-09T06:19:31;4.10;;;3.40;;
14377;SDS011;7272;53.668;9.578;2023-10-09T06:22:43;2.90;;;2.60;;
14377;SDS011;7272;53.668;9.578;2023-10-09T06:25:56;4.00;;;3.37;;
14377;SDS011;7272;53.668;9.578;2023-10-09T06:29:05;5.10;;;4.60;;
14377;SDS011;7272;53.668;9.578;2023-10-09T06:32:16;5.13;;;4.63;;
14377;SDS011;7272;53.668;9.578;2023-10-09T06:35:34;4.57;;;3.37;;
14377;SDS011;7272;53.668;9.578;2023-10-09T06:38:36;3.93;;;3.23;;
14377;SDS011;7272;53.668;9.578;2023-10-09T06:41:52;2.97;;;2.67;;
14377;SDS011;7272;53.668;9.578;2023-10-09T06:45:11;4.03;;;3.13;;
14377;SDS011;7272;53.668;9.578;2023-10-09T06:48:16;2.60;;;2.37;;
14377;SDS011;7272;53.668;9.578;2023-10-09T06:51:35;3.37;;;3.00;;
14377;SDS011;7272;53.668;9.578;2023-10-09T06:54:43;4.07;;;3.10;;
14377;SDS011;7272;53.668;9.578;2023-10-09T06:57:49;4.33;;;2.90;;
14377;SDS011;7272;53.668;9.578;2023-10-09T07:00:54;4.70;;;3.63;;
14377;SDS011;7272;53.668;9.578;2023-10-09T07:04:19;6.00;;;4.47;;
14377;SDS011;7272;53.668;9.578;2023-10-09T07:07:41;3.53;;;3.10;;
14377;SDS011;7272;53.668;9.578;2023-10-09T07:10:52;3.70;;;3.03;;
14377;SDS011;7272;53.668;9.578;2023-10-09T07:14:14;4.47;;;3.03;;
14377;SDS011;7272;53.668;9.578;2023-10-09T07:17:31;3.20;;;2.93;;
14377;SDS011;7272;53.668;9.578;2023-10-09T07:20:47;3.53;;;2.57;;
14377;SDS011;7272;53.668;9.578;2023-10-09T07:23:59;3.63;;;2.80;;
14377;SDS011;7272;53.668;9.578;2023-10-09T07:27:15;4.10;;;2.73;;
14377;SDS011;7272;53.668;9.578;2023-10-09T07:30:18;4.07;;;3.03;;
14377;SDS011;7272;53.668;9.578;2023-10-09T07:33:35;2.87;;;2.67;;
14377;SDS011;7272;53.668;9.578;2023-10-09T07:36:51;6.30;;;4.10;;
14377;SDS011;7272;53.668;9.578;2023-10-09T07:39:56;2.87;;;2.67;;
14377;SDS011;7272;53.668;9.578;2023-10-09T07:42:58;3.50;;;3.20;;
14377;SDS011;7272;53.668;9.578;2023-10-09T07:46:05;2.93;;;2.30;;
14377;SDS011;7272;53.668;9.578;2023-10-09T07:49:24;2.80;;;2.60;;
14377;SDS011;7272;53.668;9.578;2023-10-09T07:52:26;2.87;;;2.67;;
14377;SDS011;7272;53.668;9.578;2023-10-09T07:55:29;2.80;;;2.17;;
14377;SDS011;7272;53.668;9.578;2023-10-09T07:58:40;2.50;;;2.00;;
14377;SDS011;7272;53.668;9.578;2023-10-09T08:01:48;3.07;;;2.30;;
14377;SDS011;7272;53.668;9.578;2023-10-09T08:04:53;2.10;;;1.90;;
14377;SDS011;7272;53.668;9.578;2023-10-09T08:07:54;3.35;;;3.05;;
14377;SDS011;7272;53.668;9.578;2023-10-09T08:10:57;3.17;;;2.97;;
14377;SDS011;7272;53.668;9.578;2023-10-09T08:14:17;2.67;;;2.47;;
14377;SDS011;7272;53.668;9.578;2023-10-09T08:17:42;2.77;;;2.57;;
14377;SDS011;7272;53.668;9.578;2023-10-09T08:20:48;3.50;;;2.33;;
14377;SDS011;7272;53.668;9.578;2023-10-09T08:24:12;2.40;;;2.20;;
14377;SDS011;7272;53.668;9.578;2023-10-09T08:27:28;2.00;;;1.90;;
14377;SDS011;7272;53.668;9.578;2023-10-09T08:30:45;2.30;;;2.10;;
14377;SDS011;7272;53.668;9.578;2023-10-09T08:33:50;2.50;;;2.30;;
14377;SDS011;7272;53.668;9.578;2023-10-09T08:36:58;2.40;;;2.20;;
14377;SDS011;7272;53.668;9.578;2023-10-09T08:40:00;2.30;;;2.07;;
14377;SDS011;7272;53.668;9.578;2023-10-09T08:43:13;2.20;;;2.10;;
14377;SDS011;7272;53.668;9.578;2023-10-09T08:46:17;2.43;;;2.30;;
14377;SDS011;7272;53.668;9.578;2023-10-09T08:49:20;2.10;;;1.90;;
14377;SDS011;7272;53.668;9.578;2023-10-09T08:52:21;2.20;;;2.00;;
14377;SDS011;7272;53.668;9.578;2023-10-09T08:55:25;2.40;;;2.20;;
14377;SDS011;7272;53.668;9.578;2023-10-09T08:58:26;2.30;;;2.10;;
14377;SDS011;7272;53.668;9.578;2023-10-09T09:01:33;2.93;;;2.20;;
14377;SDS011;7272;53.668;9.578;2023-10-09T09:04:35;2.33;;;2.20;;
14377;SDS011;7272;53.668;9.578;2023-10-09T09:07:38;2.13;;;2.03;;
14377;SDS011;7272;53.668;9.578;2023-10-09T09:10:42;2.00;;;1.90;;
14377;SDS011;7272;53.668;9.578;2023-10-09T09:13:47;2.30;;;2.07;;
14377;SDS011;7272;53.668;9.578;2023-10-09T09:17:06;3.22;;;3.03;;
14377;SDS011;7272;53.668;9.578;2023-10-09T09:20:20;3.87;;;3.50;;
14377;SDS011;7272;53.668;9.578;2023-10-09T09:23:28;2.67;;;2.47;;
14377;SDS011;7272;53.668;9.578;2023-10-09T09:26:33;2.53;;;2.30;;
14377;SDS011;7272;53.668;9.578;2023-10-09T09:29:45;2.50;;;2.30;;
14377;SDS011;7272;53.668;9.578;2023-10-09T09:32:53;2.60;;;2.40;;
14377;SDS011;7272;53.668;9.578;2023-10-09T09:36:09;2.77;;;2.33;;
14377;SDS011;7272;53.668;9.578;2023-10-09T09:39:11;2.43;;;2.30;;
14377;SDS011;7272;53.668;9.578;2023-10-09T09:42:19;2.57;;;2.13;;
14377;SDS011;7272;53.668;9.578;2023-10-09T09:45:25;3.70;;;2.67;;
14377;SDS011;7272;53.668;9.578;2023-10-09T09:48:27;3.80;;;2.67;;
14377;SDS011;7272;53.668;9.578;2023-10-09T09:51:32;2.70;;;2.50;;
14377;SDS011;7272;53.668;9.578;2023-10-09T09:54:34;2.67;;;2.47;;
14377;SDS011;7272;53.668;9.578;2023-10-09T09:57:36;3.00;;;2.37;;
14377;SDS011;7272;53.668;9.578;2023-10-09T10:00:39;3.00;;;2.67;;
14377;SDS011;7272;53.668;9.578;2023-10-09T10:03:45;2.40;;;2.20;;
14377;SDS011;7272;53.668;9.578;2023-10-09T10:06:51;3.33;;;2.70;;
14377;SDS011;7272;53.668;9.578;2023-10-09T10:09:55;2.93;;;2.70;;
14377;SDS011;7272;53.668;9.578;2023-10-09T10:12:58;2.73;;;2.50;;
14377;SDS011;7272;53.668;9.578;2023-10-09T10:16:05;2.63;;;2.27;;
14377;SDS011;7272;53.668;9.578;2023-10-09T10:19:14;2.43;;;2.23;;
14377;SDS011;7272;53.668;9.578;2023-10-09T10:22:25;3.90;;;3.55;;
14377;SDS011;7272;53.668;9.578;2023-10-09T10:25:34;4.40;;;4.00;;
14377;SDS011;7272;53.668;9.578;2023-10-09T10:28:41;2.10;;;2.00;;
14377;SDS011;7272;53.668;9.578;2023-10-09T10:31:54;1.97;;;1.87;;
14377;SDS011;7272;53.668;9.578;2023-10-09T10:34:57;2.20;;;2.10;;
14377;SDS011;7272;53.668;9.578;2023-10-09T10:38:21;2.30;;;2.10;;
14377;SDS011;7272;53.668;9.578;2023-10-09T10:41:24;1.90;;;1.80;;
14377;SDS011;7272;53.668;9.578;2023-10-09T10:44:28;1.90;;;1.80;;
14377;SDS011;7272;53.668;9.578;2023-10-09T10:47:37;1.93;;;1.83;;
14377;SDS011;7272;53.668;9.578;2023-10-09T10:50:41;2.10;;;2.00;;
14377;SDS011;7272;53.668;9.578;2023-10-09T10:53:52;2.75;;;2.55;;
14377;SDS011;7272;53.668;9.578;2023-10-09T10:56:58;3.30;;;3.00;;
14377;SDS011;7272;53.668;9.578;2023-10-09T11:00:00;2.40;;;2.30;;
14377;SDS011;7272;53.668;9.578;2023-10-09T11:03:17;2.10;;;2.00;;
14377;SDS011;7272;53.668;9.578;2023-10-09T11:06:27;3.30;;;3.00;;
14377;SDS011;7272;53.668;9.578;2023-10-09T11:09:42;2.83;;;2.63;;
14377;SDS011;7272;53.668;9.578;2023-10-09T11:12:58;2.83;;;2.63;;
14377;SDS011;7272;53.668;9.578;2023-10-09T11:16:17;3.00;;;2.80;;
14377;SDS011;7272;53.668;9.578;2023-10-09T11:19:29;2.23;;;2.07;;
14377;SDS011;7272;53.668;9.578;2023-10-09T11:22:32;3.17;;;2.97;;
14377;SDS011;7272;53.668;9.578;2023-10-09T11:25:39;3.92;;;3.63;;
14377;SDS011;7272;53.668;9.578;2023-10-09T11:29:05;3.42;;;3.13;;
14377;SDS011;7272;53.668;9.578;2023-10-09T11:32:15;3.20;;;2.90;;
14377;SDS011;7272;53.668;9.578;2023-10-09T11:35:18;3.30;;;3.00;;
14377;SDS011;7272;53.668;9.578;2023-10-09T11:38:35;3.57;;;3.27;;
14377;SDS011;7272;53.668;9.578;2023-10-09T11:41:39;3.97;;;3.57;;
14377;SDS011;7272;53.668;9.578;2023-10-09T11:44:41;3.57;;;3.27;;
14377;SDS011;7272;53.668;9.578;2023-10-09T11:47:46;5.73;;;3.90;;
14377;SDS011;7272;53.668;9.578;2023-10-09T11:50:57;4.53;;;4.13;;
14377;SDS011;7272;53.668;9.578;2023-10-09T11:54:29;4.83;;;4.33;;
14377;SDS011;7272;53.668;9.578;2023-10-09T11:57:31;3.40;;;3.10;;
14377;SDS011;7272;53.668;9.578;2023-10-09T12:00:33;4.63;;;3.93;;
14377;SDS011;7272;53.668;9.578;2023-10-09T12:03:46;3.87;;;3.47;;
14377;SDS011;7272;53.668;9.578;2023-10-09T12:06:49;4.37;;;3.90;;
14377;SDS011;7272;53.668;9.578;2023-10-09T12:10:07;5.13;;;3.90;;
14377;SDS011;7272;53.668;9.578;2023-10-09T12:13:10;4.40;;;4.00;;
14377;SDS011;7272;53.668;9.578;2023-10-09T12:16:11;4.10;;;3.70;;
14377;SDS011;7272;53.668;9.578;2023-10-09T12:19:15;3.50;;;3.20;;
14377;SDS011;7272;53.668;9.578;2023-10-09T12:22:16;3.07;;;2.80;;
14377;SDS011;7272;53.668;9.578;2023-10-09T12:25:18;3.87;;;3.50;;
14377;SDS011;7272;53.668;9.578;2023-10-09T12:28:19;4.70;;;4.30;;
14377;SDS011;7272;53.668;9.578;2023-10-09T12:31:20;4.13;;;3.80;;
14377;SDS011;7272;53.668;9.578;2023-10-09T12:34:24;3.60;;;3.30;;
14377;SDS011;7272;53.668;9.578;2023-10-09T12:37:27;5.00;;;4.50;;
14377;SDS011;7272;53.668;9.578;2023-10-09T12:40:29;4.40;;;4.00;;
14377;SDS011;7272;53.668;9.578;2023-10-09T12:43:31;5.00;;;4.20;;
14377;SDS011;7272;53.668;9.578;2023-10-09T12:46:38;4.73;;;4.20;;
14377;SDS011;7272;53.668;9.578;2023-10-09T12:49:39;5.17;;;4.63;;
14377;SDS011;7272;53.668;9.578;2023-10-09T12:52:41;5.80;;;4.10;;
14377;SDS011;7272;53.668;9.578;2023-10-09T12:55:43;5.03;;;4.43;;
14377;SDS011;7272;53.668;9.578;2023-10-09T12:58:44;6.07;;;5.10;;
14377;SDS011;7272;53.668;9.578;2023-10-09T13:01:52;5.75;;;4.65;;
14377;SDS011;7272;53.668;9.578;2023-10-09T13:04:58;8.03;;;5.80;;
14377;SDS011;7272;53.668;9.578;2023-10-09T13:08:00;5.43;;;4.57;;
14377;SDS011;7272;53.668;9.578;2023-10-09T13:11:03;8.53;;;6.40;;
14377;SDS011;7272;53.668;9.578;2023-10-09T13:14:10;4.10;;;3.70;;
14377;SDS011;7272;53.668;9.578;2023-10-09T13:17:17;3.90;;;3.60;;
14377;SDS011;7272;53.668;9.578;2023-10-09T13:20:20;6.33;;;5.60;;
14377;SDS011;7272;53.668;9.578;2023-10-09T13:23:21;4.73;;;4.33;;
14377;SDS011;7272;53.668;9.578;2023-10-09T13:26:34;5.03;;;4.60;;
14377;SDS011;7272;53.668;9.578;2023-10-09T13:29:36;6.85;;;6.25;;
14377;SDS011;7272;53.668;9.578;2023-10-09T13:32:40;4.50;;;4.13;;
14377;SDS011;7272;53.668;9.578;2023-10-09T13:35:41;4.10;;;3.70;;
14377;SDS011;7272;53.668;9.578;2023-10-09T13:38:50;4.30;;;3.90;;
14377;SDS011;7272;53.668;9.578;2023-10-09T13:41:54;3.93;;;3.63;;
14377;SDS011;7272;53.668;9.578;2023-10-09T13:44:58;5.03;;;4.53;;
14377;SDS011;7272;53.668;9.578;2023-10-09T13:48:04;3.60;;;3.30;;
14377;SDS011;7272;53.668;9.578;2023-10-09T13:51:12;3.93;;;3.53;;
14377;SDS011;7272;53.668;9.578;2023-10-09T13:54:17;3.43;;;3.13;;
14377;SDS011;7272;53.668;9.578;2023-10-09T13:57:23;3.90;;;3.60;;
14377;SDS011;7272;53.668;9.578;2023-10-09T14:00:31;3.28;;;2.92;;
14377;SDS011;7272;53.668;9.578;2023-10-09T14:03:42;3.07;;;2.77;;
14377;SDS011;7272;53.668;9.578;2023-10-09T14:06:49;2.93;;;2.73;;
14377;SDS011;7272;53.668;9.578;2023-10-09T14:09:57;2.80;;;2.60;;
14377;SDS011;7272;53.668;9.578;2023-10-09T14:13:07;2.60;;;2.40;;
14377;SDS011;7272;53.668;9.578;2023-10-09T14:16:12;2.50;;;2.30;;
14377;SDS011;7272;53.668;9.578;2023-10-09T14:19:24;2.43;;;2.23;;
14377;SDS011;7272;53.668;9.578;2023-10-09T14:22:25;2.47;;;1.80;;
14377;SDS011;7272;53.668;9.578;2023-10-09T14:25:28;2.72;;;2.40;;
14377;SDS011;7272;53.668;9.578;2023-10-09T14:28:30;3.42;;;2.45;;
14377;SDS011;7272;53.668;9.578;2023-10-09T14:31:32;2.20;;;2.00;;
14377;SDS011;7272;53.668;9.578;2023-10-09T14:34:39;2.57;;;2.00;;
14377;SDS011;7272;53.668;9.578;2023-10-09T14:37:43;4.17;;;2.03;;
14377;SDS011;7272;53.668;9.578;2023-10-09T14:40:45;4.30;;;2.10;;
14377;SDS011;7272;53.668;9.578;2023-10-09T14:43:47;2.30;;;2.03;;
14377;SDS011;7272;53.668;9.578;2023-10-09T14:46:48;4.53;;;2.20;;
14377;SDS011;7272;53.668;9.578;2023-10-09T14:49:50;3.63;;;1.87;;
14377;SDS011;7272;53.668;9.578;2023-10-09T14:52:54;3.38;;;1.90;;
14377;SDS011;7272;53.668;9.578;2023-10-09T14:55:55;2.70;;;1.80;;
14377;SDS011;7272;53.668;9.578;2023-10-09T14:58:58;5.33;;;2.13;;
14377;SDS011;7272;53.668;9.578;2023-10-09T15:02:00;2.13;;;1.70;;
14377;SDS011;7272;53.668;9.578;2023-10-09T15:05:01;3.27;;;1.60;;
14377;SDS011;7272;53.668;9.578;2023-10-09T15:08:04;1.87;;;1.50;;
14377;SDS011;7272;53.668;9.578;2023-10-09T15:11:11;2.97;;;1.50;;
14377;SDS011;7272;53.668;9.578;2023-10-09T15:14:12;1.87;;;1.70;;
14377;SDS011;7272;53.668;9.578;2023-10-09T15:17:13;2.70;;;1.70;;
14377;SDS011;7272;53.668;9.578;2023-10-09T15:20:16;2.08;;;1.60;;
14377;SDS011;7272;53.668;9.578;2023-10-09T15:23:17;1.63;;;1.43;;
14377;SDS011;7272;53.668;9.578;2023-10-09T15:26:20;3.20;;;1.67;;
14377;SDS011;7272;53.668;9.578;2023-10-09T15:29:25;3.43;;;1.63;;
14377;SDS011;7272;53.668;9.578;2023-10-09T15:32:28;5.53;;;1.40;;
14377;SDS011;7272;53.668;9.578;2023-10-09T15:35:29;4.20;;;1.80;;
14377;SDS011;7272;53.668;9.578;2023-10-09T15:38:34;1.83;;;1.27;;
14377;SDS011;7272;53.668;9.578;2023-10-09T15:41:35;1.73;;;1.30;;
14377;SDS011;7272;53.668;9.578;2023-10-09T15:44:40;2.23;;;1.50;;
14377;SDS011;7272;53.668;9.578;2023-10-09T15:47:42;2.40;;;1.40;;
14377;SDS011;7272;53.668;9.578;2023-10-09T15:50:45;1.10;;;1.10;;
14377;SDS011;7272;53.668;9.578;2023-10-09T15:53:51;1.10;;;1.10;;
14377;SDS011;7272;53.668;9.578;2023-10-09T15:56:53;2.87;;;1.20;;
14377;SDS011;7272;53.668;9.578;2023-10-09T15:59:55;1.40;;;1.30;;
14377;SDS011;7272;53.668;9.578;2023-10-09T16:02:57;2.37;;;1.37;;
14377;SDS011;7272;53.668;9.578;2023-10-09T16:06:00;3.80;;;1.40;;
14377;SDS011;7272;53.668;9.578;2023-10-09T16:09:02;4.75;;;1.77;;
14377;SDS011;7272;53.668;9.578;2023-10-09T16:12:03;3.53;;;1.83;;
14377;SDS011;7272;53.668;9.578;2023-10-09T16:15:06;2.13;;;1.53;;
14377;SDS011;7272;53.668;9.578;2023-10-09T16:18:09;3.97;;;1.70;;
14377;SDS011;7272;53.668;9.578;2023-10-09T16:21:11;2.83;;;1.70;;
14377;SDS011;7272;53.668;9.578;2023-10-09T16:24:12;3.77;;;1.70;;
14377;SDS011;7272;53.668;9.578;2023-10-09T16:27:15;2.20;;;1.30;;
14377;SDS011;7272;53.668;9.578;2023-10-09T16:30:20;3.23;;;1.20;;
14377;SDS011;7272;53.668;9.578;2023-10-09T16:33:22;3.03;;;1.47;;
14377;SDS011;7272;53.668;9.578;2023-10-09T16:36:24;3.27;;;1.40;;
14377;SDS011;7272;53.668;9.578;2023-10-09T16:39:27;3.72;;;1.60;;
14377;SDS011;7272;53.668;9.578;2023-10-09T16:42:35;1.60;;;1.20;;
14377;SDS011;7272;53.668;9.578;2023-10-09T16:45:37;1.60;;;1.30;;
14377;SDS011;7272;53.668;9.578;2023-10-09T16:48:43;1.50;;;1.40;;
14377;SDS011;7272;53.668;9.578;2023-10-09T16:51:47;4.03;;;1.43;;
14377;SDS011;7272;53.668;9.578;2023-10-09T16:54:48;1.20;;;1.10;;
14377;SDS011;7272;53.668;9.578;2023-10-09T16:57:49;1.50;;;1.17;;
14377;SDS011;7272;53.668;9.578;2023-10-09T17:00:52;1.50;;;1.00;;
14377;SDS011;7272;53.668;9.578;2023-10-09T17:03:56;1.63;;;1.13;;
14377;SDS011;7272;53.668;9.578;2023-10-09T17:06:58;1.77;;;1.20;;
14377;SDS011;7272;53.668;9.578;2023-10-09T17:10:01;1.73;;;1.30;;
14377;SDS011;7272;53.668;9.578;2023-10-09T17:13:14;1.70;;;1.20;;
14377;SDS011;7272;53.668;9.578;2023-10-09T17:16:21;1.67;;;1.20;;
14377;SDS011;7272;53.668;9.578;2023-10-09T17:19:24;3.77;;;1.50;;
14377;SDS011;7272;53.668;9.578;2023-10-09T17:22:26;1.67;;;1.57;;
14377;SDS011;7272;53.668;9.578;2023-10-09T17:25:27;2.03;;;1.65;;
14377;SDS011;7272;53.668;9.578;2023-10-09T17:28:31;2.43;;;1.20;;
14377;SDS011;7272;53.668;9.578;2023-10-09T17:31:33;1.40;;;1.30;;
14377;SDS011;7272;53.668;9.578;2023-10-09T17:34:35;1.47;;;1.37;;
14377;SDS011;7272;53.668;9.578;2023-10-09T17:37:39;2.10;;;1.40;;
14377;SDS011;7272;53.668;9.578;2023-10-09T17:40:44;1.50;;;1.40;;
14377;SDS011;7272;53.668;9.578;2023-10-09T17:43:48;2.37;;;1.30;;
14377;SDS011;7272;53.668;9.578;2023-10-09T17:46:51;2.97;;;1.40;;
14377;SDS011;7272;53.668;9.578;2023-10-09T17:49:52;2.78;;;1.30;;
14377;SDS011;7272;53.668;9.578;2023-10-09T17:52:53;2.43;;;1.50;;
14377;SDS011;7272;53.668;9.578;2023-10-09T17:55:59;2.53;;;1.30;;
14377;SDS011;7272;53.668;9.578;2023-10-09T17:59:00;3.40;;;1.50;;
14377;SDS011;7272;53.668;9.578;2023-10-09T18:02:04;2.00;;;1.40;;
14377;SDS011;7272;53.668;9.578;2023-10-09T18:05:05;1.17;;;1.00;;
14377;SDS011;7272;53.668;9.578;2023-10-09T18:08:08;2.10;;;1.07;;
14377;SDS011;7272;53.668;9.578;2023-10-09T18:11:14;2.33;;;1.60;;
14377;SDS011;7272;53.668;9.578;2023-10-09T18:14:17;2.17;;;1.53;;
14377;SDS011;7272;53.668;9.578;2023-10-09T18:17:19;1.40;;;1.30;;
14377;SDS011;7272;53.668;9.578;2023-10-09T18:20:20;2.33;;;1.30;;
14377;SDS011;7272;53.668;9.578;2023-10-09T18:23:21;1.63;;;1.20;;
14377;SDS011;7272;53.668;9.578;2023-10-09T18:26:23;1.67;;;1.00;;
14377;SDS011;7272;53.668;9.578;2023-10-09T18:29:26;1.60;;;1.40;;
14377;SDS011;7272;53.668;9.578;2023-10-09T18:32:28;2.17;;;1.50;;
14377;SDS011;7272;53.668;9.578;2023-10-09T18:35:29;3.20;;;1.93;;
14377;SDS011;7272;53.668;9.578;2023-10-09T18:38:30;3.13;;;2.00;;
14377;SDS011;7272;53.668;9.578;2023-10-09T18:41:32;3.13;;;1.97;;
14377;SDS011;7272;53.668;9.578;2023-10-09T18:44:33;2.80;;;1.70;;
14377;SDS011;7272;53.668;9.578;2023-10-09T18:47:35;2.27;;;2.07;;
14377;SDS011;7272;53.668;9.578;2023-10-09T18:50:38;2.67;;;2.20;;
14377;SDS011;7272;53.668;9.578;2023-10-09T18:53:41;2.97;;;1.90;;
14377;SDS011;7272;53.668;9.578;2023-10-09T18:56:43;2.43;;;1.97;;
14377;SDS011;7272;53.668;9.578;2023-10-09T18:59:44;3.03;;;1.87;;
14377;SDS011;7272;53.668;9.578;2023-10-09T19:02:46;2.83;;;1.77;;